»·PEaware :: N123SX CYHZ-CYYT

N123SX :: CYHZ-CYYT

FLIGHT INFORMATION

Flight Status: Arrived
Operator: Privately registered:
United States
More flights under this callsign
Pilot: Shawn G. (7208)
Aircraft: BOEING 737-200
(B732)
More flights by this aircraft type
Origin: CYHZ Halifax Intl
Canada
Destination: CYYT St John's Intl
Canada
More flights between these airports :: More routes between these airports
Route: YHZ YQY YYT
File this flight plan on PilotEdge
Remarks:
Altitude:
(Current/Filed)
33,000ft
Speed:
(Current/Filed)
444kts
Departed: 23-Feb-18 04:52 PM
Arrived: 23-Feb-18 06:07 PM
Distance/Time
Traveled:
476nm/1:15
Distance/Time
To Go:
Arrived

Flight Plot

Page will automatically refresh every two minutes.

Flight plan parsing failed; only flown route is shown


Map Options




Map Legend


Flown Route
Filed Route
Departure Airport
Arrival Airport
Navaid (VOR, NDB)
Fix

Horizontal Profiles

Position Reports

Time Latitude Longitude Heading Altitude Ground
Speed
23-Feb-18 16:39 44.871476 -63.532350 341 486ft 0kts
23-Feb-18 16:40 44.871476 -63.532350 341 486ft 0kts
23-Feb-18 16:41 44.871476 -63.532350 341 486ft 0kts
23-Feb-18 16:42 44.871476 -63.532350 341 486ft 0kts
23-Feb-18 16:43 44.871476 -63.532350 341 486ft 0kts
23-Feb-18 16:44 44.871476 -63.532350 341 486ft 0kts
23-Feb-18 16:45 44.871480 -63.532351 340 486ft 0kts
23-Feb-18 16:46 44.871076 -63.531973 294 486ft 2kts
23-Feb-18 16:47 44.871245 -63.531452 213 486ft 0kts
23-Feb-18 16:48 44.871244 -63.531453 212 486ft 0kts
23-Feb-18 16:49 44.871244 -63.531453 213 486ft 0kts
23-Feb-18 16:50 44.871244 -63.531453 213 486ft 0kts
23-Feb-18 16:51 44.868854 -63.532524 136 486ft 14kts
23-Feb-18 16:52 44.869047 -63.527122 35 486ft 26kts
23-Feb-18 16:53 44.874987 -63.521398 33 486ft 19kts
23-Feb-18 16:54 44.879826 -63.516660 33 486ft 22kts
23-Feb-18 16:55 44.884659 -63.512018 353 486ft 16kts
23-Feb-18 16:56 44.887139 -63.509616 73 486ft 18kts
23-Feb-18 16:57 44.889605 -63.506513 86 486ft 0kts
23-Feb-18 16:58 44.886903 -63.506258 215 486ft 38kts
23-Feb-18 16:59 44.858048 -63.537011 215 2416ft 179kts
23-Feb-18 17:00 44.816286 -63.545626 136 4995ft 246kts
23-Feb-18 17:01 44.825305 -63.447485 35 8195ft 300kts
23-Feb-18 17:02 44.890371 -63.368283 42 10837ft 341kts
23-Feb-18 17:03 44.957109 -63.266154 42 13428ft 367kts
23-Feb-18 17:04 45.020706 -63.148107 55 15964ft 395kts
23-Feb-18 17:05 45.075244 -63.009169 54 18242ft 413kts
23-Feb-18 17:06 45.130397 -62.868120 52 20335ft 423kts
23-Feb-18 17:07 45.188128 -62.719335 51 22075ft 438kts
23-Feb-18 17:08 45.246865 -62.565788 50 23651ft 451kts
23-Feb-18 17:09 45.307135 -62.407292 49 25090ft 461kts
23-Feb-18 17:10 45.367523 -62.245883 50 26248ft 473kts
23-Feb-18 17:11 45.429766 -62.079591 49 27326ft 480kts
23-Feb-18 17:12 45.492214 -61.912646 49 28463ft 483kts
23-Feb-18 17:13 45.555413 -61.742464 48 29344ft 490kts
23-Feb-18 17:14 45.622519 -61.573452 41 30141ft 484kts
23-Feb-18 17:15 45.687634 -61.399832 48 31105ft 498kts
23-Feb-18 17:16 45.749566 -61.222656 49 31658ft 504kts
23-Feb-18 17:17 45.811777 -61.045420 47 32673ft 494kts
23-Feb-18 17:18 45.873187 -60.870426 46 33280ft 495kts
23-Feb-18 17:19 45.934257 -60.694939 46 33942ft 493kts
23-Feb-18 17:20 45.994423 -60.520767 46 34824ft 485kts
23-Feb-18 17:21 46.054144 -60.346494 47 35258ft 489kts
23-Feb-18 17:22 46.113039 -60.172397 46 35436ft 487kts
23-Feb-18 17:23 46.166998 -59.990180 68 35464ft 532kts
23-Feb-18 17:24 46.211323 -59.795341 56 35442ft 514kts
23-Feb-18 17:25 46.255959 -59.598240 57 35445ft 521kts
23-Feb-18 17:26 46.299821 -59.397789 57 35447ft 526kts
23-Feb-18 17:27 46.343078 -59.196184 58 35427ft 530kts
23-Feb-18 17:28 46.386851 -58.992531 58 35435ft 531kts
23-Feb-18 17:29 46.430467 -58.788512 57 35438ft 532kts
23-Feb-18 17:30 46.473737 -58.583686 57 35441ft 532kts
23-Feb-18 17:31 46.516577 -58.378259 57 35442ft 533kts
23-Feb-18 17:32 46.557780 -58.175667 59 35424ft 533kts
23-Feb-18 17:33 46.598778 -57.968502 59 35225ft 538kts
23-Feb-18 17:34 46.639017 -57.757484 60 35002ft 543kts
23-Feb-18 17:35 46.677565 -57.545292 61 35004ft 543kts
23-Feb-18 17:36 46.716504 -57.336163 60 35003ft 539kts
23-Feb-18 17:37 46.763242 -57.136133 44 35011ft 498kts
23-Feb-18 17:38 46.814125 -56.940585 57 34998ft 528kts
23-Feb-18 17:39 46.853499 -56.734145 59 35133ft 525kts
23-Feb-18 17:40 46.890591 -56.529635 59 35281ft 520kts
23-Feb-18 17:41 46.926853 -56.326322 60 35258ft 521kts
23-Feb-18 17:42 46.962765 -56.121275 60 35196ft 520kts
23-Feb-18 17:43 46.998592 -55.916641 60 35200ft 519kts
23-Feb-18 17:44 47.033759 -55.712855 60 35202ft 518kts
23-Feb-18 17:45 47.068704 -55.508244 60 35205ft 517kts
23-Feb-18 17:46 47.102190 -55.308687 61 35192ft 517kts
23-Feb-18 17:47 47.136529 -55.110413 60 35042ft 477kts
23-Feb-18 17:48 47.168759 -54.918535 63 31894ft 490kts
23-Feb-18 17:49 47.199545 -54.728466 63 29841ft 471kts
23-Feb-18 17:50 47.229664 -54.542492 64 27188ft 467kts
23-Feb-18 17:51 47.258308 -54.360618 65 25087ft 449kts
23-Feb-18 17:52 47.286066 -54.181776 68 21988ft 452kts
23-Feb-18 17:53 47.313327 -54.006163 68 19668ft 431kts
23-Feb-18 17:54 47.339316 -53.838010 69 17390ft 413kts
23-Feb-18 17:55 47.363941 -53.676251 70 15180ft 396kts
23-Feb-18 17:56 47.386499 -53.526789 70 13826ft 363kts
23-Feb-18 17:57 47.407827 -53.383772 71 12230ft 351kts
23-Feb-18 17:58 47.428153 -53.244449 72 10880ft 344kts
23-Feb-18 17:59 47.448066 -53.108321 72 10016ft 334kts
23-Feb-18 18:00 47.466388 -52.982234 71 9998ft 294kts
23-Feb-18 18:01 47.483989 -52.861239 72 8555ft 295kts
23-Feb-18 18:02 47.499982 -52.744783 72 7272ft 287kts
23-Feb-18 18:03 47.516076 -52.630993 72 6030ft 279kts
23-Feb-18 18:04 47.532077 -52.519860 72 4773ft 275kts
23-Feb-18 18:05 47.558536 -52.420865 21 3510ft 247kts
23-Feb-18 18:06 47.620413 -52.410799 356 2989ft 203kts
23-Feb-18 18:07 47.658226 -52.435439 261 3020ft 166kts
23-Feb-18 18:08 47.636822 -52.498214 269 3018ft 170kts
23-Feb-18 18:09 47.633131 -52.565372 271 2722ft 146kts
23-Feb-18 18:10 47.630663 -52.617820 273 2080ft 116kts
23-Feb-18 18:11 47.627944 -52.666952 273 1430ft 117kts
23-Feb-18 18:12 47.626169 -52.714948 271 821ft 112kts
23-Feb-18 18:13 47.624256 -52.753480 275 468ft 88kts
23-Feb-18 18:14 47.623330 -52.769371 68 468ft 4kts
23-Feb-18 18:15 47.623549 -52.768133 69 468ft 0kts
23-Feb-18 18:16 47.623549 -52.768132 61 468ft 0kts
23-Feb-18 18:17 47.624208 -52.756453 84 468ft 72kts
23-Feb-18 18:18 47.622363 -52.738878 160 468ft 20kts
23-Feb-18 18:19 47.620585 -52.738116 106 468ft 0kts

Navigation Log

Ident Type
Flight plan parsing failed, navigation log unavailable